createdAt,value
2023-04-22T00:00:18.883Z,99.99
2023-04-22T00:01:18.857Z,99.99
2023-04-22T00:02:18.929Z,99.99
2023-04-22T00:03:18.936Z,99.99
2023-04-22T00:04:19.159Z,99.99
2023-04-22T00:05:20.731Z,99.99
2023-04-22T00:06:18.751Z,99.99
2023-04-22T00:07:18.742Z,99.99
2023-04-22T00:08:18.696Z,99.99
2023-04-22T00:09:18.680Z,99.99
2023-04-22T00:10:18.669Z,99.99
2023-04-22T00:11:18.635Z,99.99
2023-04-22T00:12:18.606Z,99.99
2023-04-22T00:13:18.589Z,99.99
2023-04-22T00:14:18.561Z,99.99
2023-04-22T00:15:18.536Z,99.99
2023-04-22T00:16:18.575Z,99.99
2023-04-22T00:17:18.500Z,99.99
2023-04-22T00:18:18.461Z,99.99
2023-04-22T00:19:18.440Z,99.99
2023-04-22T00:20:18.415Z,99.99
2023-04-22T00:21:18.391Z,99.99
2023-04-22T00:22:18.387Z,99.99
2023-04-22T00:23:18.358Z,99.99
2023-04-22T00:24:18.322Z,99.99
2023-04-22T00:25:18.306Z,99.99
2023-04-22T00:26:18.301Z,99.99
2023-04-22T00:27:18.250Z,99.99
2023-04-22T00:28:18.235Z,99.99
2023-04-22T00:29:18.204Z,99.99
2023-04-22T00:30:18.182Z,99.99
2023-04-22T00:31:18.194Z,99.99
2023-04-22T00:32:18.144Z,99.99
2023-04-22T00:33:18.110Z,99.99
2023-04-22T00:34:18.215Z,99.99
2023-04-22T00:35:18.069Z,99.99
2023-04-22T00:36:18.058Z,99.99
2023-04-22T00:37:18.023Z,99.99
2023-04-22T00:38:18.008Z,99.99
2023-04-22T00:39:17.978Z,99.99
2023-04-22T00:40:17.966Z,99.99
2023-04-22T00:41:17.922Z,99.99
2023-04-22T00:42:17.918Z,99.99
2023-04-22T00:43:17.873Z,99.99
2023-04-22T00:44:17.851Z,99.99
2023-04-22T00:45:17.828Z,99.99
2023-04-22T00:46:17.861Z,99.99
2023-04-22T00:47:17.838Z,99.99
2023-04-22T00:48:17.754Z,99.99
2023-04-22T00:49:17.723Z,99.99
2023-04-22T00:50:17.710Z,99.99
2023-04-22T00:51:17.683Z,99.99
2023-04-22T00:52:17.663Z,99.99
2023-04-22T00:53:17.631Z,99.99
2023-04-22T00:54:17.622Z,99.99
2023-04-22T00:55:17.595Z,99.99
2023-04-22T00:56:17.571Z,99.99
2023-04-22T00:57:17.550Z,99.99
2023-04-22T00:58:17.554Z,99.99
2023-04-22T00:59:17.493Z,99.99
2023-04-22T01:00:17.482Z,99.99
2023-04-22T01:01:17.532Z,99.99
2023-04-22T01:02:17.497Z,99.99
2023-04-22T01:03:17.565Z,99.99
2023-04-22T01:04:17.521Z,99.99
2023-04-22T01:05:17.355Z,99.99
2023-04-22T01:06:17.336Z,99.99
2023-04-22T01:07:17.308Z,99.99
2023-04-22T01:08:17.282Z,99.99
2023-04-22T01:09:17.256Z,99.99
2023-04-22T01:10:17.242Z,99.99
2023-04-22T01:11:17.209Z,99.99
2023-04-22T01:12:17.198Z,99.99
2023-04-22T01:13:17.176Z,99.99
2023-04-22T01:14:17.184Z,99.99
2023-04-22T01:15:17.127Z,99.99
2023-04-22T01:16:17.126Z,99.99
2023-04-22T01:17:17.075Z,99.99
2023-04-22T01:18:17.048Z,99.99
2023-04-22T01:19:17.023Z,99.99
2023-04-22T01:20:16.998Z,99.99
2023-04-22T01:21:16.982Z,99.99
2023-04-22T01:22:16.955Z,99.99
2023-04-22T01:23:16.941Z,99.99
2023-04-22T01:24:16.906Z,99.99
2023-04-22T01:25:16.911Z,99.99
2023-04-22T01:26:16.863Z,99.99
2023-04-22T01:27:16.833Z,99.99
2023-04-22T01:28:16.814Z,99.99
2023-04-22T01:29:16.787Z,99.99
2023-04-22T01:30:16.789Z,99.99
2023-04-22T01:31:16.748Z,99.99
2023-04-22T01:32:16.750Z,99.99
2023-04-22T01:33:16.722Z,99.99
2023-04-22T01:34:16.672Z,99.99
2023-04-22T01:35:16.644Z,99.99
2023-04-22T01:36:16.630Z,99.99
2023-04-22T01:37:16.594Z,99.99
2023-04-22T01:38:16.602Z,99.99
2023-04-22T01:39:16.554Z,99.99
2023-04-22T01:40:16.536Z,99.99
2023-04-22T01:41:16.501Z,99.99
2023-04-22T01:42:16.473Z,99.99
2023-04-22T01:43:16.461Z,99.99
2023-04-22T01:44:16.476Z,99.99
2023-04-22T01:45:16.409Z,99.99
2023-04-22T01:46:16.453Z,99.99
2023-04-22T01:47:16.354Z,99.99
2023-04-22T01:48:16.375Z,99.99
2023-04-22T01:49:16.310Z,99.99
2023-04-22T01:50:16.288Z,99.99
2023-04-22T01:51:16.265Z,99.99
2023-04-22T01:52:16.238Z,99.99
2023-04-22T01:53:16.221Z,99.99
2023-04-22T01:54:16.189Z,99.99
2023-04-22T01:55:16.171Z,99.99
2023-04-22T01:56:16.159Z,99.99
2023-04-22T01:57:16.126Z,99.99
2023-04-22T01:58:16.097Z,99.99
2023-04-22T01:59:16.072Z,99.99
2023-04-22T02:00:16.048Z,99.99
2023-04-22T02:01:16.052Z,99.99
2023-04-22T02:02:16.188Z,99.99
2023-04-22T02:03:16.085Z,99.99
2023-04-22T02:04:15.953Z,99.99
2023-04-22T02:05:15.948Z,99.99
2023-04-22T02:06:15.904Z,99.99
2023-04-22T02:07:15.880Z,99.99
2023-04-22T02:08:15.856Z,99.99
2023-04-22T02:09:15.828Z,99.99
2023-04-22T02:10:15.802Z,99.99
2023-04-22T02:11:15.801Z,99.99
2023-04-22T02:12:15.768Z,99.99
2023-04-22T02:13:15.744Z,99.99
2023-04-22T02:14:15.711Z,99.99
2023-04-22T02:15:15.691Z,99.99
2023-04-22T02:16:15.700Z,99.99
2023-04-22T02:17:15.644Z,99.99
2023-04-22T02:18:15.632Z,99.99
2023-04-22T02:19:15.595Z,99.99
2023-04-22T02:20:15.652Z,99.99
2023-04-22T02:21:15.557Z,99.99
2023-04-22T02:22:15.527Z,99.99
2023-04-22T02:23:15.500Z,99.99
2023-04-22T02:24:15.468Z,99.99
2023-04-22T02:25:15.447Z,99.99
2023-04-22T02:26:15.422Z,99.99
2023-04-22T02:27:15.414Z,99.99
2023-04-22T02:28:15.379Z,99.99
2023-04-22T02:29:15.354Z,99.99
2023-04-22T02:30:15.322Z,99.99
2023-04-22T02:31:15.306Z,99.99
2023-04-22T02:32:15.291Z,99.99
2023-04-22T02:33:15.256Z,99.99
2023-04-22T02:34:15.273Z,99.99
2023-04-22T02:35:15.212Z,99.99
2023-04-22T02:36:15.199Z,99.99
2023-04-22T02:37:15.174Z,99.99
2023-04-22T02:38:15.136Z,99.99
2023-04-22T02:39:15.133Z,99.99
2023-04-22T02:40:15.101Z,99.99
2023-04-22T02:41:15.064Z,99.99
2023-04-22T02:42:15.038Z,99.99
2023-04-22T02:43:15.020Z,99.99
2023-04-22T02:44:14.991Z,99.99
2023-04-22T02:45:14.977Z,99.99
2023-04-22T02:46:14.980Z,99.99
2023-04-22T02:47:14.936Z,99.99
2023-04-22T02:48:14.898Z,99.99
2023-04-22T02:49:14.873Z,99.99
2023-04-22T02:50:14.867Z,99.99
2023-04-22T02:51:14.826Z,99.99
2023-04-22T02:52:14.800Z,99.99
2023-04-22T02:53:14.780Z,99.99
2023-04-22T02:54:14.752Z,99.99
2023-04-22T02:55:14.737Z,99.99
2023-04-22T02:56:14.709Z,99.99
2023-04-22T02:57:14.690Z,99.99
2023-04-22T02:58:14.659Z,99.99
2023-04-22T02:59:14.675Z,99.99
2023-04-22T03:00:14.606Z,99.99
2023-04-22T03:01:14.626Z,99.99
2023-04-22T03:02:14.658Z,99.99
2023-04-22T03:03:14.621Z,99.99
2023-04-22T03:04:14.582Z,99.99
2023-04-22T03:05:14.488Z,99.99
2023-04-22T03:06:14.512Z,99.99
2023-04-22T03:07:14.445Z,99.99
2023-04-22T03:08:14.428Z,99.99
2023-04-22T03:09:14.400Z,99.99
2023-04-22T03:10:14.373Z,99.99
2023-04-22T03:11:14.356Z,99.99
2023-04-22T03:12:14.315Z,99.99
2023-04-22T03:13:14.310Z,99.99
2023-04-22T03:14:14.272Z,99.99
2023-04-22T03:15:14.253Z,99.99
2023-04-22T03:16:14.290Z,99.99
2023-04-22T03:17:14.204Z,99.99
2023-04-22T03:18:14.183Z,99.99
2023-04-22T03:19:14.161Z,99.99
2023-04-22T03:20:14.140Z,99.99
2023-04-22T03:21:14.112Z,99.99
2023-04-22T03:22:14.149Z,99.99
2023-04-22T03:23:14.066Z,99.99
2023-04-22T03:24:14.036Z,99.99
2023-04-22T03:25:14.018Z,99.99
2023-04-22T03:26:13.995Z,99.99
2023-04-22T03:27:13.972Z,99.99
2023-04-22T03:28:13.939Z,99.99
2023-04-22T03:29:13.927Z,99.99
2023-04-22T03:30:13.902Z,99.99
2023-04-22T03:31:13.881Z,99.99
2023-04-22T03:32:13.956Z,99.99
2023-04-22T03:33:13.884Z,99.99
2023-04-22T03:34:13.799Z,99.99
2023-04-22T03:35:13.789Z,99.99
2023-04-22T03:36:13.750Z,99.99
2023-04-22T03:37:13.729Z,99.99
2023-04-22T03:38:13.732Z,99.99
2023-04-22T03:39:13.686Z,99.99
2023-04-22T03:40:13.952Z,99.99
2023-04-22T03:41:13.636Z,99.99
2023-04-22T03:42:13.611Z,99.99
2023-04-22T03:43:13.595Z,99.99
2023-04-22T03:44:13.571Z,99.99
2023-04-22T03:45:13.544Z,99.99
2023-04-22T03:46:13.554Z,99.99
2023-04-22T03:47:13.498Z,99.99
2023-04-22T03:48:13.474Z,99.99
2023-04-22T03:49:13.445Z,99.99
2023-04-22T03:50:13.427Z,99.99
2023-04-22T03:51:13.400Z,99.99
2023-04-22T03:52:13.380Z,99.99
2023-04-22T03:53:13.358Z,99.99
2023-04-22T03:54:13.355Z,99.99
2023-04-22T03:55:13.296Z,99.99
2023-04-22T03:56:13.281Z,99.99
2023-04-22T03:57:13.271Z,99.99
2023-04-22T03:58:13.225Z,99.99
2023-04-22T03:59:13.207Z,99.99
2023-04-22T04:00:13.181Z,99.99
2023-04-22T04:01:13.163Z,99.99
2023-04-22T04:02:13.241Z,99.99
2023-04-22T04:03:13.329Z,99.99
2023-04-22T04:04:13.226Z,99.99
2023-04-22T04:05:13.132Z,99.99
2023-04-22T04:06:13.130Z,99.99
2023-04-22T04:07:13.013Z,99.99
2023-04-22T04:08:12.985Z,99.99
2023-04-22T04:09:12.969Z,99.99
2023-04-22T04:10:12.954Z,99.99
2023-04-22T04:11:12.921Z,99.99
2023-04-22T04:12:12.890Z,99.99
2023-04-22T04:13:12.872Z,99.99
2023-04-22T04:14:12.882Z,99.99
2023-04-22T04:15:12.839Z,99.99
2023-04-22T04:16:12.891Z,99.99
2023-04-22T04:17:12.786Z,99.99
2023-04-22T04:18:12.757Z,99.99
2023-04-22T04:19:12.735Z,99.99
2023-04-22T04:20:12.744Z,99.99
2023-04-22T04:21:12.679Z,99.99
2023-04-22T04:22:12.662Z,99.99
2023-04-22T04:23:12.634Z,99.99
2023-04-22T04:24:12.619Z,99.99
2023-04-22T04:25:12.590Z,99.99
2023-04-22T04:26:12.593Z,99.99
2023-04-22T04:27:12.540Z,99.99
2023-04-22T04:28:12.513Z,99.99
2023-04-22T04:29:12.493Z,99.99
2023-04-22T04:30:12.463Z,99.99
2023-04-22T04:31:12.464Z,99.99
2023-04-22T04:32:12.433Z,99.99
2023-04-22T04:33:12.557Z,99.99
2023-04-22T04:34:12.369Z,99.99
2023-04-22T04:35:12.347Z,99.99
2023-04-22T04:36:12.317Z,99.99
2023-04-22T04:37:12.303Z,99.99
2023-04-22T04:38:12.266Z,99.99
2023-04-22T04:39:12.250Z,99.99
2023-04-22T04:40:12.236Z,99.99
2023-04-22T04:41:12.207Z,99.99
2023-04-22T04:42:12.233Z,99.99
2023-04-22T04:43:12.160Z,99.99
2023-04-22T04:44:12.139Z,99.99
2023-04-22T04:45:12.116Z,99.99
2023-04-22T04:46:12.103Z,99.99
2023-04-22T04:47:12.066Z,99.99
2023-04-22T04:48:12.114Z,99.99
2023-04-22T04:49:12.015Z,99.99
2023-04-22T04:50:11.993Z,99.99
2023-04-22T04:51:11.968Z,99.99
2023-04-22T04:52:11.988Z,99.99
2023-04-22T04:53:11.918Z,99.99
2023-04-22T04:54:11.896Z,99.99
2023-04-22T04:55:11.870Z,99.99
2023-04-22T04:56:11.860Z,99.99
2023-04-22T04:57:11.824Z,99.99
2023-04-22T04:58:11.815Z,99.99
2023-04-22T04:59:11.776Z,99.99
2023-04-22T05:00:11.754Z,99.99
2023-04-22T05:01:11.768Z,99.99
2023-04-22T05:02:11.742Z,99.99
2023-04-22T05:03:11.982Z,99.99
2023-04-22T05:04:12.042Z,99.99
2023-04-22T05:05:11.642Z,99.99
2023-04-22T05:06:11.618Z,99.99
2023-04-22T05:07:11.591Z,99.99
2023-04-22T05:08:11.571Z,99.99
2023-04-22T05:09:11.547Z,99.99
2023-04-22T05:10:11.540Z,99.99
2023-04-22T05:11:11.495Z,99.99
2023-04-22T05:12:11.470Z,99.99
2023-04-22T05:13:11.461Z,99.99
2023-04-22T05:14:11.443Z,99.99
2023-04-22T05:15:11.406Z,99.99
2023-04-22T05:16:11.393Z,99.99
2023-04-22T05:17:11.355Z,99.99
2023-04-22T05:18:11.428Z,99.99
2023-04-22T05:19:11.315Z,99.99
2023-04-22T05:20:11.285Z,99.99
2023-04-22T05:21:11.264Z,99.99
2023-04-22T05:22:11.243Z,99.99
2023-04-22T05:23:11.224Z,99.99
2023-04-22T05:24:11.192Z,99.99
2023-04-22T05:25:11.169Z,99.99
2023-04-22T05:26:11.141Z,99.99
2023-04-22T05:27:11.175Z,99.99
2023-04-22T05:28:11.097Z,99.99
2023-04-22T05:29:11.078Z,99.99
2023-04-22T05:30:11.087Z,99.99
2023-04-22T05:31:11.029Z,99.99
2023-04-22T05:32:11.049Z,99.99
2023-04-22T05:33:11.089Z,99.99
2023-04-22T05:34:10.957Z,99.99
2023-04-22T05:35:10.931Z,99.99
2023-04-22T05:36:10.908Z,99.99
2023-04-22T05:37:10.886Z,99.99
2023-04-22T05:38:10.865Z,99.99
2023-04-22T05:39:10.837Z,99.99
2023-04-22T05:40:10.820Z,99.99
2023-04-22T05:41:10.787Z,99.99
2023-04-22T05:42:10.763Z,99.99
2023-04-22T05:43:10.744Z,99.99
2023-04-22T05:44:10.728Z,99.99
2023-04-22T05:45:10.706Z,99.99
2023-04-22T05:46:10.711Z,99.99
2023-04-22T05:47:10.651Z,99.99
2023-04-22T05:48:10.680Z,99.99
2023-04-22T05:49:10.616Z,99.99
2023-04-22T05:50:10.576Z,99.99
2023-04-22T05:51:10.566Z,99.99
2023-04-22T05:52:10.536Z,99.99
2023-04-22T05:53:10.498Z,99.99
2023-04-22T05:54:10.484Z,99.99
2023-04-22T05:55:10.445Z,99.99
2023-04-22T05:56:10.432Z,99.99
2023-04-22T05:57:10.406Z,99.99
2023-04-22T05:58:10.385Z,99.99
2023-04-22T05:59:10.367Z,99.99
2023-04-22T06:00:10.339Z,99.99
2023-04-22T06:01:10.316Z,99.99
2023-04-22T06:02:10.405Z,99.99
2023-04-22T06:03:10.445Z,99.99
2023-04-22T06:04:10.684Z,99.99
2023-04-22T06:05:10.492Z,99.99
2023-04-22T06:06:10.213Z,99.99
2023-04-22T06:07:10.177Z,99.99
2023-04-22T06:08:10.149Z,99.99
2023-04-22T06:09:10.161Z,99.99
2023-04-22T06:10:10.117Z,99.99
2023-04-22T06:11:10.076Z,99.99
2023-04-22T06:12:10.056Z,99.99
2023-04-22T06:13:10.028Z,99.99
2023-04-22T06:14:10.018Z,99.99
2023-04-22T06:15:09.991Z,99.99
2023-04-22T06:16:09.980Z,99.99
2023-04-22T06:17:09.978Z,99.99
2023-04-22T06:18:09.933Z,99.99
2023-04-22T06:19:10.424Z,99.99
2023-04-22T06:20:09.884Z,99.99
2023-04-22T06:21:09.864Z,99.99
2023-04-22T06:22:09.822Z,99.99
2023-04-22T06:23:09.791Z,99.99
2023-04-22T06:24:09.772Z,99.99
2023-04-22T06:25:09.761Z,99.99
2023-04-22T06:26:09.725Z,99.99
2023-04-22T06:27:09.701Z,99.99
2023-04-22T06:28:09.684Z,99.99
2023-04-22T06:29:09.660Z,99.99
2023-04-22T06:30:09.626Z,99.99
2023-04-22T06:31:09.643Z,99.99
2023-04-22T06:32:09.583Z,99.99
2023-04-22T06:33:09.572Z,99.99
2023-04-22T06:34:09.555Z,99.99
2023-04-22T06:35:09.510Z,99.99
2023-04-22T06:36:09.489Z,99.99
2023-04-22T06:37:09.467Z,99.99
2023-04-22T06:38:09.443Z,99.99
2023-04-22T06:39:09.410Z,99.99
2023-04-22T06:40:09.392Z,99.99
2023-04-22T06:41:09.377Z,99.99
2023-04-22T06:42:09.343Z,99.99
2023-04-22T06:43:09.325Z,99.99
2023-04-22T06:44:09.301Z,99.99
2023-04-22T06:45:09.278Z,99.99
2023-04-22T06:46:09.291Z,99.99
2023-04-22T06:47:09.227Z,99.99
2023-04-22T06:48:09.217Z,99.99
2023-04-22T06:49:09.240Z,99.99
2023-04-22T06:50:09.291Z,99.99
2023-04-22T06:51:09.130Z,99.99
2023-04-22T06:52:09.194Z,99.99
2023-04-22T06:53:09.102Z,99.99
2023-04-22T06:54:09.073Z,99.99
2023-04-22T06:55:09.109Z,99.99
2023-04-22T06:56:09.134Z,99.99
2023-04-22T06:57:09.062Z,99.99
2023-04-22T06:58:08.981Z,99.99
2023-04-22T06:59:08.951Z,99.99
2023-04-22T07:00:08.946Z,99.99
2023-04-22T07:01:08.893Z,99.99
2023-04-22T07:02:09.073Z,99.99
2023-04-22T07:03:08.974Z,99.99
2023-04-22T07:04:08.894Z,99.99
2023-04-22T07:05:08.811Z,99.99
2023-04-22T07:06:08.864Z,99.99
2023-04-22T07:07:08.761Z,99.99
2023-04-22T07:08:08.743Z,99.99
2023-04-22T07:09:08.716Z,99.99
2023-04-22T07:10:08.688Z,99.99
2023-04-22T07:11:08.669Z,99.99
2023-04-22T07:12:08.658Z,99.99
2023-04-22T07:13:08.623Z,99.99
2023-04-22T07:14:08.596Z,99.99
2023-04-22T07:15:08.587Z,99.99
2023-04-22T07:16:08.621Z,99.99
2023-04-22T07:17:08.525Z,99.99
2023-04-22T07:18:08.515Z,99.99
2023-04-22T07:19:08.482Z,99.99
2023-04-22T07:20:08.469Z,99.99
2023-04-22T07:21:08.427Z,99.99
2023-04-22T07:22:08.437Z,99.99
2023-04-22T07:23:08.389Z,99.99
2023-04-22T07:24:08.367Z,99.99
2023-04-22T07:25:08.341Z,99.99
2023-04-22T07:26:08.328Z,99.99
2023-04-22T07:27:08.293Z,99.99
2023-04-22T07:28:08.275Z,99.99
2023-04-22T07:29:08.260Z,99.99
2023-04-22T07:30:08.239Z,99.99
2023-04-22T07:31:08.209Z,99.99
2023-04-22T07:32:08.286Z,99.99
2023-04-22T07:33:08.200Z,99.99
2023-04-22T07:34:08.146Z,99.99
2023-04-22T07:35:08.120Z,99.99
2023-04-22T07:36:08.107Z,99.99
2023-04-22T07:37:08.067Z,99.99
2023-04-22T07:38:09.266Z,99.99
2023-04-22T07:39:08.026Z,99.99
2023-04-22T07:40:08.033Z,99.99
2023-04-22T07:41:07.975Z,99.99
2023-04-22T07:42:07.959Z,99.99
2023-04-22T07:43:07.936Z,99.99
2023-04-22T07:44:07.908Z,99.99
2023-04-22T07:45:07.884Z,99.99
2023-04-22T07:46:07.980Z,99.99
2023-04-22T07:47:07.849Z,99.99
2023-04-22T07:48:07.819Z,99.99
2023-04-22T07:49:07.802Z,99.99
2023-04-22T07:50:07.780Z,99.99
2023-04-22T07:51:07.746Z,99.99
2023-04-22T07:52:07.727Z,99.99
2023-04-22T07:53:07.730Z,99.99
2023-04-22T07:54:07.719Z,99.99
2023-04-22T07:55:07.652Z,99.99
2023-04-22T07:56:07.649Z,99.99
2023-04-22T07:57:07.611Z,99.99
2023-04-22T07:58:07.604Z,99.99
2023-04-22T07:59:07.561Z,99.99
2023-04-22T08:00:07.558Z,99.99
2023-04-22T08:01:07.575Z,99.99
2023-04-22T08:02:07.601Z,99.99
2023-04-22T08:03:07.777Z,99.99
2023-04-22T08:04:07.731Z,99.99
2023-04-22T08:05:07.444Z,99.99
2023-04-22T08:06:07.416Z,99.99
2023-04-22T08:07:21.704Z,99.99
2023-04-22T08:08:07.374Z,99.99
2023-04-22T08:09:07.350Z,99.99
2023-04-22T08:10:07.347Z,99.99
2023-04-22T08:11:07.298Z,99.99
2023-04-22T08:12:07.276Z,99.99
2023-04-22T08:13:07.254Z,99.99
2023-04-22T08:14:07.240Z,99.99
2023-04-22T08:15:07.210Z,99.99
2023-04-22T08:16:07.200Z,99.99
2023-04-22T08:17:07.168Z,99.99
2023-04-22T08:18:07.156Z,99.99
2023-04-22T08:19:07.119Z,99.99
2023-04-22T08:20:08.057Z,99.99
2023-04-22T08:21:07.069Z,99.99
2023-04-22T08:22:07.055Z,99.99
2023-04-22T08:23:07.049Z,99.99
2023-04-22T08:24:07.028Z,99.99
2023-04-22T08:25:06.992Z,99.99
2023-04-22T08:26:07.100Z,99.99
2023-04-22T08:27:06.958Z,99.99
2023-04-22T08:28:06.928Z,99.99
2023-04-22T08:29:06.894Z,99.99
2023-04-22T08:30:06.881Z,99.99
2023-04-22T08:31:06.881Z,99.99
2023-04-22T08:32:06.834Z,99.99
2023-04-22T08:33:06.814Z,99.99
2023-04-22T08:34:06.786Z,99.99
2023-04-22T08:35:06.764Z,99.99
2023-04-22T08:36:06.743Z,99.99
2023-04-22T08:37:06.723Z,99.99
2023-04-22T08:38:06.713Z,99.99
2023-04-22T08:39:06.678Z,99.99
2023-04-22T08:40:06.665Z,99.99
2023-04-22T08:41:06.633Z,99.99
2023-04-22T08:42:06.639Z,99.99
2023-04-22T08:43:06.599Z,99.99
2023-04-22T08:44:06.576Z,99.99
2023-04-22T08:45:06.555Z,99.99
2023-04-22T08:46:06.568Z,99.99
2023-04-22T08:47:06.643Z,99.99
2023-04-22T08:48:06.515Z,99.99
2023-04-22T08:49:06.462Z,99.99
2023-04-22T08:50:06.458Z,99.99
2023-04-22T08:51:06.423Z,99.99
2023-04-22T08:52:06.405Z,99.99
2023-04-22T08:53:06.370Z,99.99
2023-04-22T08:54:06.369Z,99.99
2023-04-22T08:55:06.332Z,99.99
2023-04-22T08:56:06.331Z,99.99
2023-04-22T08:57:06.294Z,99.99
2023-04-22T08:58:06.398Z,99.99
2023-04-22T08:59:06.255Z,99.99
2023-04-22T09:00:06.248Z,99.99
2023-04-22T09:01:06.205Z,99.99
2023-04-22T09:02:06.371Z,99.99
2023-04-22T09:03:06.263Z,99.99
2023-04-22T09:04:06.235Z,99.99
2023-04-22T09:05:06.122Z,99.99
2023-04-22T09:06:06.101Z,99.99
2023-04-22T09:07:06.083Z,99.99
2023-04-22T09:08:06.071Z,99.99
2023-04-22T09:09:06.051Z,99.99
2023-04-22T09:10:06.021Z,99.99
2023-04-22T09:11:05.995Z,99.99
2023-04-22T09:12:05.974Z,99.99
2023-04-22T09:13:05.950Z,99.99
2023-04-22T09:14:05.958Z,99.99
2023-04-22T09:15:05.906Z,99.99
2023-04-22T09:16:05.903Z,99.99
2023-04-22T09:17:05.872Z,99.99
2023-04-22T09:18:05.842Z,99.99
2023-04-22T09:19:05.817Z,99.99
2023-04-22T09:20:05.803Z,99.99
2023-04-22T09:21:05.776Z,99.99
2023-04-22T09:22:05.761Z,99.99
2023-04-22T09:23:05.738Z,99.99
2023-04-22T09:24:05.719Z,99.99
2023-04-22T09:25:05.690Z,99.99
2023-04-22T09:26:05.670Z,99.99
2023-04-22T09:27:05.648Z,99.99
2023-04-22T09:28:05.641Z,99.99
2023-04-22T09:29:05.607Z,99.99
2023-04-22T09:30:05.605Z,99.99
2023-04-22T09:31:05.566Z,99.99
2023-04-22T09:32:05.606Z,99.99
2023-04-22T09:33:05.558Z,99.99
2023-04-22T09:34:05.502Z,99.99
2023-04-22T09:35:05.480Z,99.99
2023-04-22T09:36:05.463Z,99.99
2023-04-22T09:37:05.441Z,99.99
2023-04-22T09:38:05.418Z,99.99
2023-04-22T09:39:05.393Z,99.99
2023-04-22T09:40:05.386Z,99.99
2023-04-22T09:41:05.351Z,99.99
2023-04-22T09:42:05.342Z,99.99
2023-04-22T09:43:05.310Z,99.99
2023-04-22T09:44:05.295Z,99.99
2023-04-22T09:45:05.267Z,99.99
2023-04-22T09:46:05.315Z,98.96
2023-04-22T09:47:05.251Z,98.67
2023-04-22T09:48:05.203Z,99.54
2023-04-22T09:49:05.177Z,99.99
2023-04-22T09:50:05.170Z,99.99
2023-04-22T09:51:05.141Z,99.99
2023-04-22T09:52:05.130Z,99.99
2023-04-22T09:53:05.119Z,99.99
2023-04-22T09:54:05.120Z,99.99
2023-04-22T09:55:05.058Z,99.73
2023-04-22T09:56:05.044Z,99.63
2023-04-22T09:57:05.755Z,99.05
2023-04-22T09:58:04.997Z,99.99
2023-04-22T09:59:04.979Z,99.99
2023-04-22T10:00:04.956Z,99.99
2023-04-22T10:01:04.965Z,99.99
2023-04-22T10:02:05.090Z,99.99
2023-04-22T10:03:05.450Z,99.99
2023-04-22T10:04:04.973Z,99.99
2023-04-22T10:05:04.854Z,99.87
2023-04-22T10:06:04.833Z,99.30
2023-04-22T10:07:04.809Z,99.99
2023-04-22T10:08:04.857Z,99.99
2023-04-22T10:09:04.781Z,99.06
2023-04-22T10:10:04.744Z,98.96
2023-04-22T10:11:04.741Z,96.94
2023-04-22T10:12:04.708Z,97.14
2023-04-22T10:13:04.687Z,96.32
2023-04-22T10:14:04.662Z,97.19
2023-04-22T10:15:04.643Z,96.99
2023-04-22T10:16:04.622Z,96.42
2023-04-22T10:17:04.651Z,96.61
2023-04-22T10:18:04.666Z,93.91
2023-04-22T10:19:04.605Z,91.90
2023-04-22T10:20:04.543Z,92.86
2023-04-22T10:21:04.518Z,92.76
2023-04-22T10:22:04.494Z,93.44
2023-04-22T10:23:04.483Z,91.32
2023-04-22T10:24:04.459Z,89.01
2023-04-22T10:25:04.435Z,89.83
2023-04-22T10:26:04.412Z,90.59
2023-04-22T10:27:04.396Z,89.83
2023-04-22T10:28:04.372Z,89.15
2023-04-22T10:29:04.365Z,86.75
2023-04-22T10:30:04.349Z,87.13
2023-04-22T10:31:04.343Z,85.31
2023-04-22T10:32:04.290Z,85.98
2023-04-22T10:33:04.281Z,86.65
2023-04-22T10:34:04.277Z,83.09
2023-04-22T10:35:04.232Z,83.00
2023-04-22T10:36:04.208Z,85.02
2023-04-22T10:37:04.190Z,85.78
2023-04-22T10:38:04.167Z,85.40
2023-04-22T10:39:04.145Z,83.67
2023-04-22T10:40:04.127Z,82.46
2023-04-22T10:41:04.103Z,81.60
2023-04-22T10:42:04.084Z,82.27
2023-04-22T10:43:04.081Z,81.88
2023-04-22T10:44:04.045Z,83.81
2023-04-22T10:45:04.026Z,81.88
2023-04-22T10:46:04.042Z,84.29
2023-04-22T10:47:03.990Z,83.42
2023-04-22T10:48:04.011Z,83.95
2023-04-22T10:49:06.199Z,85.87
2023-04-22T10:50:03.948Z,82.98
2023-04-22T10:51:03.912Z,84.62
2023-04-22T10:52:03.906Z,83.95
2023-04-22T10:53:03.867Z,82.12
2023-04-22T10:54:03.841Z,82.60
2023-04-22T10:55:03.847Z,81.45
2023-04-22T10:56:04.003Z,82.50
2023-04-22T10:57:03.796Z,82.98
2023-04-22T10:58:03.771Z,84.38
2023-04-22T10:59:03.759Z,83.70
2023-04-22T11:00:03.724Z,81.77
2023-04-22T11:01:03.714Z,81.20
2023-04-22T11:02:03.722Z,80.43
2023-04-22T11:03:03.773Z,80.23
2023-04-22T11:04:03.717Z,80.52
2023-04-22T11:05:03.636Z,81.01
2023-04-22T11:06:03.633Z,82.59
2023-04-22T11:07:03.597Z,80.76
2023-04-22T11:08:03.575Z,81.14
2023-04-22T11:09:03.558Z,80.66
2023-04-22T11:10:03.533Z,78.06
2023-04-22T11:11:03.514Z,78.34
2023-04-22T11:12:03.501Z,78.06
2023-04-22T11:13:03.481Z,79.02
2023-04-22T11:14:03.465Z,77.58
2023-04-22T11:15:03.450Z,74.97
2023-04-22T11:16:03.473Z,75.07
2023-04-22T11:17:03.402Z,78.06
2023-04-22T11:18:03.387Z,77.96
2023-04-22T11:19:03.363Z,78.63
2023-04-22T11:20:03.340Z,78.15
2023-04-22T11:21:03.317Z,75.93
2023-04-22T11:22:03.330Z,77.86
2023-04-22T11:23:03.293Z,77.19
2023-04-22T11:24:03.265Z,75.74
2023-04-22T11:25:03.248Z,75.07
2023-04-22T11:26:03.230Z,74.20
2023-04-22T11:27:03.208Z,74.58
2023-04-22T11:28:03.182Z,73.43
2023-04-22T11:29:03.181Z,73.97
2023-04-22T11:30:03.150Z,74.45
2023-04-22T11:31:03.139Z,75.32
2023-04-22T11:32:03.168Z,74.61
2023-04-22T11:33:03.123Z,74.22
2023-04-22T11:34:03.073Z,75.86
2023-04-22T11:35:03.056Z,77.11
2023-04-22T11:36:03.032Z,77.69
2023-04-22T11:37:03.028Z,77.69
2023-04-22T11:38:03.023Z,76.92
2023-04-22T11:39:02.987Z,77.11
2023-04-22T11:40:25.385Z,77.69
2023-04-22T11:41:02.928Z,77.73
2023-04-22T11:42:02.910Z,75.90
2023-04-22T11:43:02.890Z,75.80
2023-04-22T11:44:02.880Z,76.23
2023-04-22T11:45:02.864Z,74.58
2023-04-22T11:46:02.908Z,74.20
2023-04-22T11:47:02.821Z,74.68
2023-04-22T11:48:02.852Z,75.65
2023-04-22T11:49:02.777Z,75.93
2023-04-22T11:50:02.764Z,73.72
2023-04-22T11:51:02.738Z,75.84
2023-04-22T11:52:02.716Z,75.84
2023-04-22T11:53:02.696Z,75.84
2023-04-22T11:54:02.708Z,74.40
2023-04-22T11:55:02.669Z,72.50
2023-04-22T11:56:02.638Z,72.60
2023-04-22T11:57:02.622Z,73.18
2023-04-22T11:58:02.597Z,72.08
2023-04-22T11:59:02.586Z,72.21
2023-04-22T12:00:02.576Z,72.50
2023-04-22T12:01:02.541Z,73.18
2023-04-22T12:02:02.605Z,73.18
2023-04-22T12:03:02.707Z,73.27
2023-04-22T12:04:02.670Z,73.08
2023-04-22T12:05:02.497Z,73.85
2023-04-22T12:06:02.460Z,73.85
2023-04-22T12:07:02.428Z,74.43
2023-04-22T12:08:02.404Z,73.66
2023-04-22T12:09:02.386Z,73.66
2023-04-22T12:10:02.403Z,74.24
2023-04-22T12:11:02.366Z,74.68
2023-04-22T12:12:02.326Z,74.20
2023-04-22T12:13:02.306Z,73.53
2023-04-22T12:14:02.285Z,74.01
2023-04-22T12:15:02.276Z,74.01
2023-04-22T12:16:02.247Z,73.14
2023-04-22T12:17:02.266Z,73.43
2023-04-22T12:18:02.263Z,75.74
2023-04-22T12:19:02.193Z,74.10
2023-04-22T12:20:02.173Z,76.90
2023-04-22T12:21:02.169Z,75.65
2023-04-22T12:22:02.139Z,73.24
2023-04-22T12:23:02.116Z,72.85
2023-04-22T12:24:02.101Z,72.75
2023-04-22T12:25:02.083Z,73.62
2023-04-22T12:26:02.076Z,74.30
2023-04-22T12:27:02.042Z,75.65
2023-04-22T12:28:02.023Z,73.24
2023-04-22T12:29:02.018Z,74.40
2023-04-22T12:30:01.974Z,74.88
2023-04-22T12:31:01.986Z,75.36
2023-04-22T12:32:01.940Z,74.40
2023-04-22T12:33:01.947Z,75.16
2023-04-22T12:34:01.915Z,74.88
2023-04-22T12:35:01.891Z,74.68
2023-04-22T12:36:01.863Z,74.10
2023-04-22T12:37:01.847Z,73.72
2023-04-22T12:38:01.839Z,74.88
2023-04-22T12:39:01.823Z,75.07
2023-04-22T12:40:01.792Z,73.53
2023-04-22T12:41:01.766Z,74.10
2023-04-22T12:42:01.770Z,74.91
2023-04-22T12:43:01.733Z,74.30
2023-04-22T12:44:01.711Z,72.56
2023-04-22T12:45:01.693Z,74.10
2023-04-22T12:46:01.706Z,73.53
2023-04-22T12:47:01.656Z,73.53
2023-04-22T12:48:01.628Z,74.01
2023-04-22T12:49:01.617Z,75.03
2023-04-22T12:50:01.642Z,75.99
2023-04-22T12:51:01.580Z,75.03
2023-04-22T12:52:01.571Z,75.32